Weather observations for the past three days for
Waterville, Waterville Robert LaFleur Airport
Imperial (Metric)
Date Time (edt) Wind (mph) Vis. (mi.) Weather Sky Cond. Temperature (ºF) Relative Humidity Wind Chill (°F) Heat Index (°F) Pressure Precipitation (in)
Air Dwpt 6 hour altimeter (in) sea level (mb) 1 hr 3 hr 6 hr
Max. Min.
31 19:56 Calm 10.00 Fair CLR 61 54 75.9 61 78% 30.03 1017.4
31 18:56 Calm 10.00 Fair CLR 69.1 54 59% 30.03 1017.4
31 17:56 Calm 10.00 Fair CLR 73.9 51.1 45% 30.03 1017.5
31 16:56 Vrbl 5 10.00 Fair CLR 75 50 42% 78 30.04 1017.5
31 15:56 NW 3 10.00 Fair CLR 75 48.9 40% 77 30.04 1017.6
31 14:56 S 3 10.00 Fair CLR 73 48 41% 30.06 1018.3
31 12:56 SW 5 10.00 Fair CLR 71.1 48.9 46% 30.09 1019.3
31 11:56 NW 9 10.00 Fair CLR 69.1 51.1 53% 30.1 1019.6
31 10:56 NW 6 10.00 Fair CLR 66.9 51.1 57% 30.12 1020.3
31 09:56 NW 6 10.00 Fair CLR 63 52 68% 30.12 1020.3
31 08:56 NW 6 10.00 Fair CLR 62.1 52 70% 30.1 1019.7
31 07:56 Vrbl 5 10.00 Fair CLR 59 52 59 51.1 78% 30.11 1020.0 0.01
31 06:56 NW 6 10.00 Fair CLR 54 51.1 90% 30.09 1019.6
31 05:56 NW 3 10.00 Fair CLR 52 50 93% 30.07 1018.8
31 04:56 N 8 10.00 Fair CLR 53.1 51.1 93% 30.05 1018.0 0.01 0.01
31 03:56 NW 5 10.00 Fair CLR 54 52 93% 30.05 1018.1
31 02:56 NW 6 10.00 Fair CLR 55 54 96% 30.05 1018.0
31 01:56 N 6 10.00 Fair CLR 55 54 69.1 55 96% 30.03 1017.5 0.13
31 00:56 NW 6 10.00 Fair CLR 57 55.9 96% 30.02 1017.1
30 23:56 W 6 10.00 Fair CLR 57.9 57 97% 30.01 1016.5
30 22:56 W 6 10.00 Fair CLR 59 57.9 96% 29.99 1016.0 0.01 0.13
30 21:56 S 3 8.00 Rain SCT075 OVC090 57.9 57.9 100% 29.99 1016.0 0.1
30 20:56 NW 9 G 16 6.00 Rain Fog/Mist BKN044 OVC055 61 57 87% 30 1016.5 0.02
30 19:56 N 14 10.00 Overcast FEW049 BKN095 OVC110 69.1 57.9 73 69.1 68% 29.96 1014.9
30 18:56 W 5 10.00 Overcast OVC090 69.1 59 70% 29.93 1014.0
30 17:56 SW 10 10.00 Overcast OVC100 71.1 57 61% 29.92 1013.5
30 16:56 SW 7 10.00 Overcast OVC085 71.1 60.1 68% 29.93 1013.8
30 15:56 SW 13 10.00 Overcast OVC100 72 60.1 66% 29.93 1014.0
30 14:56 SW 12 10.00 Overcast OVC110 72 60.1 66% 29.95 1014.7
30 13:56 SW 10 10.00 Fair CLR 72 60.1 73.9 59 66% 29.97 1015.3
30 12:56 SW 10 10.00 Overcast FEW029 SCT090 OVC110 73.9 60.1 62% 29.98 1015.6
30 11:56 W 10 G 18 10.00 Overcast OVC120 73.9 57.9 57% 29.99 1016.0
30 10:56 SW 8 10.00 Mostly Cloudy BKN100 72 57.9 61% 30.02 1016.9
30 09:56 SW 9 10.00 A Few Clouds FEW110 72 59 64% 30.03 1017.2
30 08:56 SW 5 10.00 Fair CLR 66 57.9 75% 30.03 1017.4
30 07:56 S 5 10.00 Fair CLR 59 55.9 59 53.1 90% 30.04 1017.7
30 06:56 SW 6 10.00 Fair CLR 54 54 100% 30.04 1017.9
30 05:56 SW 6 10.00 A Few Clouds FEW080 53.1 52 96% 30.05 1018.1
30 04:56 SW 3 10.00 Mostly Cloudy BKN090 55 54 96% 30.06 1018.2
30 03:56 S 6 10.00 Fair CLR 54 54 100% 30.06 1018.3
29 23:56 SW 5 10.00 Fair CLR 55.9 52 87% 30.09 1019.3
29 22:56 SW 5 10.00 Fair CLR 57.9 52 81% 30.1 1019.8
29 21:56 SW 6 10.00 Fair CLR 57.9 51.1 78% 30.09 1019.5
29 20:56 W 5 10.00 Fair CLR 64 50 60% 30.1 1019.6
29 19:56 W 3 10.00 Fair CLR 64.9 50 75.9 64.9 59% 30.09 1019.4
29 18:56 W 5 10.00 Fair CLR 70 50 49% 30.08 1019.1
29 17:56 W 7 10.00 Fair CLR 73.9 48.9 41% 30.09 1019.2
29 16:56 Vrbl 3 10.00 Fair CLR 75 48.9 40% 77 30.09 1019.2
29 15:56 W 10 10.00 Fair CLR 75 48.9 40% 77 30.09 1019.4
29 14:56 W 9 10.00 Fair CLR 73.9 48 40% 30.11 1019.9
29 13:56 Vrbl 7 10.00 A Few Clouds FEW055 73 48 73 62.1 41% 30.13 1020.5
29 12:56 NW 10 10.00 Fair CLR 72 48.9 44% 30.13 1020.7
29 11:56 Vrbl 3 10.00 Fair CLR 70 48 46% 30.15 1021.2
29 10:56 Vrbl 7 10.00 Fair CLR 68 48.9 51% 30.16 1021.7
29 09:56 W 9 10.00 Fair CLR 66.9 51.1 57% 30.16 1021.8
29 08:56 Vrbl 7 10.00 Fair CLR 64.9 52 63% 30.16 1021.6
29 07:56 NW 5 10.00 Fair CLR 63 55 63 51.1 76% 30.15 1021.4
29 06:56 Calm 10.00 Fair CLR 54 52 93% 30.13 1020.9
29 05:56 N 3 10.00 Fair CLR 52 50 93% 30.11 1020.1
29 04:56 N 5 10.00 Fair CLR 52 51.1 97% 30.1 1019.6
29 03:56 N 3 10.00 Fair CLR 55 53.1 93% 30.08 1018.9
29 02:56 Calm 10.00 Mostly Cloudy BKN075 59 54 83% 30.07 1018.5
29 01:56 NE 3 10.00 Overcast OVC080 61 54 73.9 61 78% 30.07 1018.5
29 00:56 N 8 10.00 Overcast OVC070 64 54 70% 30.06 1018.2
28 23:56 N 10 10.00 Mostly Cloudy BKN065 64.9 55.9 73% 30.04 1017.6
28 22:56 N 9 10.00 Overcast BKN060 OVC080 68 57 68% 30.02 1017.0
28 21:56 NE 8 10.00 Mostly Cloudy BKN060 70 59 68% 30 1016.4
28 20:56 N 8 10.00 Overcast BKN050 OVC060 72 62.1 71% 29.98 1015.5
Date Time (edt) Wind (mph) Vis. (mi.) Weather Sky Cond. Air Dwpt Max. Min. Relative Humidity Wind Chill (°F) Heat Index (°F) altimeter (in) sea level (mb) 1 hr 3 hr 6 hr
6 hour
Temperature (ºF) Pressure Precipitation (in)